Terminal Aerodrome Forecast
Issued by NWS Topeka, KS

Home | Current Version | Previous Version | Graphics & Text | Print | Product List | Glossary On
Versions: 1 2 3 4 5 6 7 8 9 10 11 12 13 14
000
FTUS43 KTOP 241727
TAFTOP
TAF
KTOP 241727Z 2418/2518 23013G22KT P6SM FEW200
     FM242300 34008KT P6SM SCT150
      TEMPO 2423/2501 36015G23KT=

USA.gov is the U.S. government's official web portal to all federal, state and local government web resources and services.